sensor_id;sensor_type;location;lat;lon;timestamp;P1;durP1;ratioP1;P2;durP2;ratioP2
72924;SDS011;61070;50.794;7.054;2023-02-21T00:00:50;45.72;;;22.75;;
72924;SDS011;61070;50.794;7.054;2023-02-21T00:03:34;45.95;;;22.27;;
72924;SDS011;61070;50.794;7.054;2023-02-21T00:06:17;47.28;;;22.38;;
72924;SDS011;61070;50.794;7.054;2023-02-21T00:09:01;54.60;;;24.65;;
72924;SDS011;61070;50.794;7.054;2023-02-21T00:11:45;45.05;;;22.80;;
72924;SDS011;61070;50.794;7.054;2023-02-21T00:14:29;44.53;;;22.13;;
72924;SDS011;61070;50.794;7.054;2023-02-21T00:17:13;48.40;;;23.27;;
72924;SDS011;61070;50.794;7.054;2023-02-21T00:19:57;44.75;;;21.52;;
72924;SDS011;61070;50.794;7.054;2023-02-21T00:22:41;52.65;;;23.08;;
72924;SDS011;61070;50.794;7.054;2023-02-21T00:25:25;46.00;;;21.75;;
72924;SDS011;61070;50.794;7.054;2023-02-21T00:28:09;47.83;;;21.67;;
72924;SDS011;61070;50.794;7.054;2023-02-21T00:30:53;48.83;;;24.13;;
72924;SDS011;61070;50.794;7.054;2023-02-21T00:33:37;47.67;;;24.15;;
72924;SDS011;61070;50.794;7.054;2023-02-21T00:36:20;47.80;;;23.67;;
72924;SDS011;61070;50.794;7.054;2023-02-21T00:39:04;45.35;;;23.40;;
72924;SDS011;61070;50.794;7.054;2023-02-21T00:41:48;45.95;;;21.63;;
72924;SDS011;61070;50.794;7.054;2023-02-21T00:44:32;43.03;;;22.75;;
72924;SDS011;61070;50.794;7.054;2023-02-21T00:47:16;50.05;;;24.52;;
72924;SDS011;61070;50.794;7.054;2023-02-21T00:50:00;54.75;;;24.15;;
72924;SDS011;61070;50.794;7.054;2023-02-21T00:52:44;43.53;;;23.60;;
72924;SDS011;61070;50.794;7.054;2023-02-21T00:55:28;49.05;;;24.65;;
72924;SDS011;61070;50.794;7.054;2023-02-21T00:58:12;44.38;;;22.17;;
72924;SDS011;61070;50.794;7.054;2023-02-21T01:00:56;44.50;;;23.58;;
72924;SDS011;61070;50.794;7.054;2023-02-21T01:03:40;54.70;;;25.13;;
72924;SDS011;61070;50.794;7.054;2023-02-21T01:06:24;44.08;;;22.58;;
72924;SDS011;61070;50.794;7.054;2023-02-21T01:09:08;47.25;;;24.20;;
72924;SDS011;61070;50.794;7.054;2023-02-21T01:11:52;55.65;;;23.70;;
72924;SDS011;61070;50.794;7.054;2023-02-21T01:14:35;47.47;;;24.63;;
72924;SDS011;61070;50.794;7.054;2023-02-21T01:17:19;46.00;;;23.75;;
72924;SDS011;61070;50.794;7.054;2023-02-21T01:20:04;51.75;;;23.88;;
72924;SDS011;61070;50.794;7.054;2023-02-21T01:22:48;49.95;;;24.67;;
72924;SDS011;61070;50.794;7.054;2023-02-21T01:25:32;50.15;;;23.83;;
72924;SDS011;61070;50.794;7.054;2023-02-21T01:28:16;44.72;;;24.02;;
72924;SDS011;61070;50.794;7.054;2023-02-21T01:31:00;54.22;;;26.48;;
72924;SDS011;61070;50.794;7.054;2023-02-21T01:33:44;48.65;;;24.15;;
72924;SDS011;61070;50.794;7.054;2023-02-21T01:36:27;49.10;;;24.95;;
72924;SDS011;61070;50.794;7.054;2023-02-21T01:39:11;47.30;;;24.75;;
72924;SDS011;61070;50.794;7.054;2023-02-21T01:41:56;48.00;;;23.48;;
72924;SDS011;61070;50.794;7.054;2023-02-21T01:44:41;53.17;;;23.40;;
72924;SDS011;61070;50.794;7.054;2023-02-21T01:47:27;45.92;;;24.05;;
72924;SDS011;61070;50.794;7.054;2023-02-21T01:50:13;47.65;;;23.80;;
72924;SDS011;61070;50.794;7.054;2023-02-21T01:53:02;47.85;;;23.55;;
72924;SDS011;61070;50.794;7.054;2023-02-21T01:55:51;48.85;;;23.23;;
72924;SDS011;61070;50.794;7.054;2023-02-21T01:58:36;44.88;;;22.63;;
72924;SDS011;61070;50.794;7.054;2023-02-21T02:01:35;45.42;;;22.67;;
72924;SDS011;61070;50.794;7.054;2023-02-21T02:04:32;50.28;;;23.65;;
72924;SDS011;61070;50.794;7.054;2023-02-21T02:07:17;56.22;;;24.77;;
72924;SDS011;61070;50.794;7.054;2023-02-21T02:10:01;48.22;;;24.33;;
72924;SDS011;61070;50.794;7.054;2023-02-21T02:15:49;46.67;;;23.42;;
72924;SDS011;61070;50.794;7.054;2023-02-21T02:18:34;48.83;;;22.67;;
72924;SDS011;61070;50.794;7.054;2023-02-21T02:21:19;49.10;;;23.35;;
72924;SDS011;61070;50.794;7.054;2023-02-21T02:27:17;48.92;;;23.23;;
72924;SDS011;61070;50.794;7.054;2023-02-21T02:35:06;49.35;;;24.15;;
72924;SDS011;61070;50.794;7.054;2023-02-21T02:37:39;44.90;;;24.88;;
72924;SDS011;61070;50.794;7.054;2023-02-21T02:40:32;54.40;;;25.27;;
72924;SDS011;61070;50.794;7.054;2023-02-21T02:43:20;48.10;;;24.25;;
72924;SDS011;61070;50.794;7.054;2023-02-21T02:45:53;49.10;;;24.13;;
72924;SDS011;61070;50.794;7.054;2023-02-21T02:48:31;49.13;;;23.95;;
72924;SDS011;61070;50.794;7.054;2023-02-21T02:51:00;46.85;;;24.02;;
72924;SDS011;61070;50.794;7.054;2023-02-21T02:53:29;47.40;;;24.23;;
72924;SDS011;61070;50.794;7.054;2023-02-21T02:55:55;45.03;;;23.90;;
72924;SDS011;61070;50.794;7.054;2023-02-21T02:58:21;44.13;;;22.67;;
72924;SDS011;61070;50.794;7.054;2023-02-21T03:00:56;44.50;;;23.08;;
72924;SDS011;61070;50.794;7.054;2023-02-21T03:03:34;51.58;;;22.58;;
72924;SDS011;61070;50.794;7.054;2023-02-21T03:06:29;45.33;;;24.23;;
72924;SDS011;61070;50.794;7.054;2023-02-21T03:09:22;49.40;;;24.40;;
72924;SDS011;61070;50.794;7.054;2023-02-21T03:11:54;52.45;;;24.73;;
72924;SDS011;61070;50.794;7.054;2023-02-21T03:14:43;43.88;;;24.15;;
72924;SDS011;61070;50.794;7.054;2023-02-21T03:17:14;49.03;;;23.83;;
72924;SDS011;61070;50.794;7.054;2023-02-21T03:19:43;44.80;;;22.88;;
72924;SDS011;61070;50.794;7.054;2023-02-21T03:22:15;41.42;;;21.52;;
72924;SDS011;61070;50.794;7.054;2023-02-21T03:24:44;43.58;;;22.00;;
72924;SDS011;61070;50.794;7.054;2023-02-21T03:27:12;47.08;;;23.40;;
72924;SDS011;61070;50.794;7.054;2023-02-21T03:29:38;39.90;;;22.27;;
72924;SDS011;61070;50.794;7.054;2023-02-21T03:32:06;48.90;;;22.58;;
72924;SDS011;61070;50.794;7.054;2023-02-21T03:34:39;46.88;;;24.42;;
72924;SDS011;61070;50.794;7.054;2023-02-21T03:37:06;49.47;;;23.73;;
72924;SDS011;61070;50.794;7.054;2023-02-21T03:39:34;52.22;;;24.73;;
72924;SDS011;61070;50.794;7.054;2023-02-21T03:41:59;44.33;;;22.83;;
72924;SDS011;61070;50.794;7.054;2023-02-21T03:44:25;42.58;;;22.92;;
72924;SDS011;61070;50.794;7.054;2023-02-21T03:46:50;42.67;;;22.27;;
72924;SDS011;61070;50.794;7.054;2023-02-21T03:49:15;43.17;;;22.15;;
72924;SDS011;61070;50.794;7.054;2023-02-21T03:51:40;46.47;;;23.42;;
72924;SDS011;61070;50.794;7.054;2023-02-21T03:54:06;44.95;;;21.90;;
72924;SDS011;61070;50.794;7.054;2023-02-21T03:56:31;49.13;;;22.88;;
72924;SDS011;61070;50.794;7.054;2023-02-21T03:58:56;46.55;;;22.58;;
72924;SDS011;61070;50.794;7.054;2023-02-21T04:01:22;44.47;;;21.40;;
72924;SDS011;61070;50.794;7.054;2023-02-21T04:03:47;47.63;;;22.27;;
72924;SDS011;61070;50.794;7.054;2023-02-21T04:06:12;44.10;;;21.45;;
72924;SDS011;61070;50.794;7.054;2023-02-21T04:08:37;45.47;;;21.33;;
72924;SDS011;61070;50.794;7.054;2023-02-21T04:11:03;43.80;;;22.52;;
72924;SDS011;61070;50.794;7.054;2023-02-21T04:13:28;43.40;;;20.73;;
72924;SDS011;61070;50.794;7.054;2023-02-21T04:15:53;40.45;;;20.40;;
72924;SDS011;61070;50.794;7.054;2023-02-21T04:18:19;46.10;;;21.17;;
72924;SDS011;61070;50.794;7.054;2023-02-21T04:20:44;42.42;;;19.73;;
72924;SDS011;61070;50.794;7.054;2023-02-21T04:23:11;44.35;;;20.45;;
72924;SDS011;61070;50.794;7.054;2023-02-21T04:25:39;42.38;;;19.63;;
72924;SDS011;61070;50.794;7.054;2023-02-21T04:28:05;40.67;;;19.73;;
72924;SDS011;61070;50.794;7.054;2023-02-21T04:30:30;41.17;;;19.42;;
72924;SDS011;61070;50.794;7.054;2023-02-21T04:32:55;40.97;;;19.52;;
72924;SDS011;61070;50.794;7.054;2023-02-21T04:35:21;41.65;;;20.30;;
72924;SDS011;61070;50.794;7.054;2023-02-21T04:37:46;44.88;;;18.52;;
72924;SDS011;61070;50.794;7.054;2023-02-21T04:40:12;41.55;;;18.95;;
72924;SDS011;61070;50.794;7.054;2023-02-21T04:42:37;41.70;;;19.27;;
72924;SDS011;61070;50.794;7.054;2023-02-21T04:45:03;42.05;;;18.90;;
72924;SDS011;61070;50.794;7.054;2023-02-21T04:47:28;38.95;;;18.15;;
72924;SDS011;61070;50.794;7.054;2023-02-21T04:49:53;41.40;;;18.98;;
72924;SDS011;61070;50.794;7.054;2023-02-21T04:52:19;50.80;;;19.65;;
72924;SDS011;61070;50.794;7.054;2023-02-21T04:54:44;49.58;;;19.98;;
72924;SDS011;61070;50.794;7.054;2023-02-21T04:57:11;36.05;;;17.90;;
72924;SDS011;61070;50.794;7.054;2023-02-21T04:59:36;35.85;;;18.67;;
72924;SDS011;61070;50.794;7.054;2023-02-21T05:02:02;36.78;;;18.08;;
72924;SDS011;61070;50.794;7.054;2023-02-21T05:04:27;41.80;;;18.70;;
72924;SDS011;61070;50.794;7.054;2023-02-21T05:06:52;39.88;;;18.20;;
72924;SDS011;61070;50.794;7.054;2023-02-21T05:09:17;40.40;;;18.75;;
72924;SDS011;61070;50.794;7.054;2023-02-21T05:11:43;43.13;;;19.17;;
72924;SDS011;61070;50.794;7.054;2023-02-21T05:14:08;37.33;;;18.17;;
72924;SDS011;61070;50.794;7.054;2023-02-21T05:16:33;39.00;;;18.52;;
72924;SDS011;61070;50.794;7.054;2023-02-21T05:18:59;34.65;;;15.93;;
72924;SDS011;61070;50.794;7.054;2023-02-21T05:21:26;36.83;;;16.92;;
72924;SDS011;61070;50.794;7.054;2023-02-21T05:23:51;36.53;;;17.15;;
72924;SDS011;61070;50.794;7.054;2023-02-21T05:26:20;35.17;;;17.00;;
72924;SDS011;61070;50.794;7.054;2023-02-21T05:28:48;42.78;;;18.10;;
72924;SDS011;61070;50.794;7.054;2023-02-21T05:31:14;37.50;;;17.40;;
72924;SDS011;61070;50.794;7.054;2023-02-21T05:33:39;39.92;;;18.15;;
72924;SDS011;61070;50.794;7.054;2023-02-21T05:36:04;39.92;;;18.75;;
72924;SDS011;61070;50.794;7.054;2023-02-21T05:38:30;37.60;;;18.20;;
72924;SDS011;61070;50.794;7.054;2023-02-21T05:40:56;43.88;;;18.50;;
72924;SDS011;61070;50.794;7.054;2023-02-21T05:43:21;39.55;;;17.88;;
72924;SDS011;61070;50.794;7.054;2023-02-21T05:45:48;38.10;;;19.20;;
72924;SDS011;61070;50.794;7.054;2023-02-21T05:48:13;41.13;;;18.15;;
72924;SDS011;61070;50.794;7.054;2023-02-21T05:50:39;41.72;;;18.08;;
72924;SDS011;61070;50.794;7.054;2023-02-21T05:53:05;39.97;;;18.80;;
72924;SDS011;61070;50.794;7.054;2023-02-21T05:55:31;41.70;;;19.48;;
72924;SDS011;61070;50.794;7.054;2023-02-21T05:57:56;41.92;;;20.08;;
72924;SDS011;61070;50.794;7.054;2023-02-21T06:00:23;42.65;;;20.38;;
72924;SDS011;61070;50.794;7.054;2023-02-21T06:02:51;39.70;;;18.83;;
72924;SDS011;61070;50.794;7.054;2023-02-21T06:05:18;46.05;;;20.23;;
72924;SDS011;61070;50.794;7.054;2023-02-21T06:07:44;41.42;;;20.48;;
72924;SDS011;61070;50.794;7.054;2023-02-21T06:10:10;43.55;;;19.55;;
72924;SDS011;61070;50.794;7.054;2023-02-21T06:12:36;45.17;;;21.20;;
72924;SDS011;61070;50.794;7.054;2023-02-21T06:15:02;40.33;;;20.42;;
72924;SDS011;61070;50.794;7.054;2023-02-21T06:17:31;42.78;;;20.52;;
72924;SDS011;61070;50.794;7.054;2023-02-21T06:19:57;43.15;;;20.10;;
72924;SDS011;61070;50.794;7.054;2023-02-21T06:22:22;44.22;;;21.50;;
72924;SDS011;61070;50.794;7.054;2023-02-21T06:24:47;46.67;;;21.33;;
72924;SDS011;61070;50.794;7.054;2023-02-21T06:27:12;38.90;;;19.50;;
72924;SDS011;61070;50.794;7.054;2023-02-21T06:29:39;41.30;;;20.13;;
72924;SDS011;61070;50.794;7.054;2023-02-21T06:32:04;50.67;;;19.42;;
72924;SDS011;61070;50.794;7.054;2023-02-21T06:34:30;32.28;;;16.08;;
72924;SDS011;61070;50.794;7.054;2023-02-21T06:36:55;35.38;;;16.02;;
72924;SDS011;61070;50.794;7.054;2023-02-21T06:39:21;29.08;;;13.15;;
72924;SDS011;61070;50.794;7.054;2023-02-21T06:41:48;25.88;;;12.73;;
72924;SDS011;61070;50.794;7.054;2023-02-21T06:44:14;29.10;;;13.85;;
72924;SDS011;61070;50.794;7.054;2023-02-21T06:46:40;25.10;;;12.23;;
72924;SDS011;61070;50.794;7.054;2023-02-21T06:49:06;27.85;;;11.98;;
72924;SDS011;61070;50.794;7.054;2023-02-21T06:51:34;33.25;;;12.77;;
72924;SDS011;61070;50.794;7.054;2023-02-21T06:56:29;28.80;;;12.02;;
72924;SDS011;61070;50.794;7.054;2023-02-21T06:58:55;29.10;;;12.45;;
72924;SDS011;61070;50.794;7.054;2023-02-21T07:01:21;25.17;;;11.38;;
72924;SDS011;61070;50.794;7.054;2023-02-21T07:03:47;24.65;;;11.23;;
72924;SDS011;61070;50.794;7.054;2023-02-21T07:06:13;30.40;;;12.13;;
72924;SDS011;61070;50.794;7.054;2023-02-21T07:08:39;27.65;;;12.02;;
72924;SDS011;61070;50.794;7.054;2023-02-21T07:11:04;24.08;;;11.52;;
72924;SDS011;61070;50.794;7.054;2023-02-21T07:13:30;28.50;;;13.13;;
72924;SDS011;61070;50.794;7.054;2023-02-21T07:15:56;30.02;;;13.75;;
72924;SDS011;61070;50.794;7.054;2023-02-21T07:18:21;28.75;;;12.32;;
72924;SDS011;61070;50.794;7.054;2023-02-21T07:20:47;25.15;;;12.43;;
72924;SDS011;61070;50.794;7.054;2023-02-21T07:23:13;23.73;;;11.57;;
72924;SDS011;61070;50.794;7.054;2023-02-21T07:25:39;25.83;;;12.55;;
72924;SDS011;61070;50.794;7.054;2023-02-21T07:28:04;31.20;;;14.05;;
72924;SDS011;61070;50.794;7.054;2023-02-21T07:30:29;44.22;;;19.27;;
72924;SDS011;61070;50.794;7.054;2023-02-21T07:32:55;29.95;;;12.90;;
72924;SDS011;61070;50.794;7.054;2023-02-21T07:35:21;29.92;;;13.13;;
72924;SDS011;61070;50.794;7.054;2023-02-21T07:37:46;27.33;;;12.52;;
72924;SDS011;61070;50.794;7.054;2023-02-21T07:40:11;25.45;;;12.68;;
72924;SDS011;61070;50.794;7.054;2023-02-21T07:42:39;27.08;;;11.93;;
72924;SDS011;61070;50.794;7.054;2023-02-21T07:47:32;31.20;;;12.90;;
72924;SDS011;61070;50.794;7.054;2023-02-21T07:49:58;31.67;;;13.40;;
72924;SDS011;61070;50.794;7.054;2023-02-21T07:52:23;27.50;;;12.68;;
72924;SDS011;61070;50.794;7.054;2023-02-21T07:54:48;30.77;;;14.27;;
72924;SDS011;61070;50.794;7.054;2023-02-21T07:57:14;29.77;;;13.98;;
72924;SDS011;61070;50.794;7.054;2023-02-21T07:59:40;30.92;;;13.27;;
72924;SDS011;61070;50.794;7.054;2023-02-21T08:02:06;28.67;;;14.18;;
72924;SDS011;61070;50.794;7.054;2023-02-21T08:04:31;34.08;;;13.73;;
72924;SDS011;61070;50.794;7.054;2023-02-21T08:06:59;28.52;;;13.48;;
72924;SDS011;61070;50.794;7.054;2023-02-21T08:09:26;30.55;;;15.40;;
72924;SDS011;61070;50.794;7.054;2023-02-21T08:11:52;33.40;;;15.30;;
72924;SDS011;61070;50.794;7.054;2023-02-21T08:14:17;38.95;;;15.73;;
72924;SDS011;61070;50.794;7.054;2023-02-21T08:16:43;30.90;;;14.55;;
72924;SDS011;61070;50.794;7.054;2023-02-21T08:19:08;33.25;;;15.65;;
72924;SDS011;61070;50.794;7.054;2023-02-21T08:21:33;35.03;;;14.70;;
72924;SDS011;61070;50.794;7.054;2023-02-21T08:23:59;35.67;;;15.85;;
72924;SDS011;61070;50.794;7.054;2023-02-21T08:26:24;39.58;;;15.90;;
72924;SDS011;61070;50.794;7.054;2023-02-21T08:28:50;34.42;;;15.73;;
72924;SDS011;61070;50.794;7.054;2023-02-21T08:31:15;38.03;;;15.15;;
72924;SDS011;61070;50.794;7.054;2023-02-21T08:33:40;32.83;;;15.80;;
72924;SDS011;61070;50.794;7.054;2023-02-21T08:36:05;36.22;;;16.73;;
72924;SDS011;61070;50.794;7.054;2023-02-21T08:38:31;28.88;;;14.45;;
72924;SDS011;61070;50.794;7.054;2023-02-21T08:40:56;37.20;;;17.15;;
72924;SDS011;61070;50.794;7.054;2023-02-21T08:43:22;37.13;;;17.58;;
72924;SDS011;61070;50.794;7.054;2023-02-21T08:45:48;34.47;;;16.80;;
72924;SDS011;61070;50.794;7.054;2023-02-21T08:48:13;38.28;;;17.52;;
72924;SDS011;61070;50.794;7.054;2023-02-21T08:50:39;35.88;;;17.15;;
72924;SDS011;61070;50.794;7.054;2023-02-21T08:53:04;38.83;;;17.60;;
72924;SDS011;61070;50.794;7.054;2023-02-21T08:55:29;37.05;;;17.88;;
72924;SDS011;61070;50.794;7.054;2023-02-21T08:57:55;37.65;;;18.30;;
72924;SDS011;61070;50.794;7.054;2023-02-21T09:00:21;39.55;;;17.73;;
72924;SDS011;61070;50.794;7.054;2023-02-21T09:02:48;39.53;;;18.00;;
72924;SDS011;61070;50.794;7.054;2023-02-21T09:05:17;44.25;;;20.50;;
72924;SDS011;61070;50.794;7.054;2023-02-21T09:07:48;39.33;;;19.77;;
72924;SDS011;61070;50.794;7.054;2023-02-21T09:10:14;40.42;;;19.08;;
72924;SDS011;61070;50.794;7.054;2023-02-21T09:12:41;43.05;;;19.67;;
72924;SDS011;61070;50.794;7.054;2023-02-21T09:15:06;45.42;;;19.00;;
72924;SDS011;61070;50.794;7.054;2023-02-21T09:17:32;45.85;;;19.73;;
72924;SDS011;61070;50.794;7.054;2023-02-21T09:20:07;56.40;;;22.35;;
72924;SDS011;61070;50.794;7.054;2023-02-21T09:22:34;52.80;;;22.50;;
72924;SDS011;61070;50.794;7.054;2023-02-21T09:24:59;51.92;;;24.02;;
72924;SDS011;61070;50.794;7.054;2023-02-21T09:27:26;55.63;;;23.63;;
72924;SDS011;61070;50.794;7.054;2023-02-21T09:30:11;54.70;;;23.15;;
72924;SDS011;61070;50.794;7.054;2023-02-21T09:32:40;63.92;;;25.33;;
72924;SDS011;61070;50.794;7.054;2023-02-21T09:35:06;50.55;;;22.75;;
72924;SDS011;61070;50.794;7.054;2023-02-21T09:37:36;48.83;;;22.73;;
72924;SDS011;61070;50.794;7.054;2023-02-21T09:40:02;51.63;;;22.83;;
72924;SDS011;61070;50.794;7.054;2023-02-21T09:42:29;57.85;;;23.10;;
72924;SDS011;61070;50.794;7.054;2023-02-21T09:44:55;58.97;;;23.40;;
72924;SDS011;61070;50.794;7.054;2023-02-21T09:47:26;59.42;;;25.90;;
72924;SDS011;61070;50.794;7.054;2023-02-21T09:49:58;51.08;;;22.23;;
72924;SDS011;61070;50.794;7.054;2023-02-21T09:52:32;48.53;;;21.88;;
72924;SDS011;61070;50.794;7.054;2023-02-21T09:55:07;46.83;;;22.30;;
72924;SDS011;61070;50.794;7.054;2023-02-21T09:57:43;48.72;;;20.85;;
72924;SDS011;61070;50.794;7.054;2023-02-21T10:00:16;49.63;;;21.20;;
72924;SDS011;61070;50.794;7.054;2023-02-21T10:08:04;41.25;;;20.65;;
72924;SDS011;61070;50.794;7.054;2023-02-21T10:14:26;42.03;;;18.63;;
72924;SDS011;61070;50.794;7.054;2023-02-21T10:17:03;92.03;;;33.72;;
72924;SDS011;61070;50.794;7.054;2023-02-21T10:19:42;58.22;;;22.02;;
72924;SDS011;61070;50.794;7.054;2023-02-21T10:22:12;51.58;;;23.58;;
72924;SDS011;61070;50.794;7.054;2023-02-21T10:24:43;51.80;;;23.63;;
72924;SDS011;61070;50.794;7.054;2023-02-21T10:27:16;53.20;;;22.67;;
72924;SDS011;61070;50.794;7.054;2023-02-21T10:32:24;46.90;;;20.55;;
72924;SDS011;61070;50.794;7.054;2023-02-21T10:34:50;88.30;;;34.55;;
72924;SDS011;61070;50.794;7.054;2023-02-21T10:45:52;47.90;;;20.92;;
72924;SDS011;61070;50.794;7.054;2023-02-21T10:48:24;45.77;;;22.43;;
72924;SDS011;61070;50.794;7.054;2023-02-21T10:53:29;51.88;;;22.88;;
72924;SDS011;61070;50.794;7.054;2023-02-21T10:58:38;48.55;;;22.33;;
72924;SDS011;61070;50.794;7.054;2023-02-21T11:01:13;47.05;;;21.75;;
72924;SDS011;61070;50.794;7.054;2023-02-21T11:03:44;41.55;;;19.10;;
72924;SDS011;61070;50.794;7.054;2023-02-21T11:08:54;39.35;;;18.02;;
72924;SDS011;61070;50.794;7.054;2023-02-21T11:14:24;43.67;;;19.13;;
72924;SDS011;61070;50.794;7.054;2023-02-21T11:17:13;40.08;;;18.75;;
72924;SDS011;61070;50.794;7.054;2023-02-21T11:19:42;44.92;;;19.20;;
72924;SDS011;61070;50.794;7.054;2023-02-21T11:22:17;44.28;;;21.55;;
72924;SDS011;61070;50.794;7.054;2023-02-21T11:27:14;46.88;;;20.70;;
72924;SDS011;61070;50.794;7.054;2023-02-21T11:29:41;45.30;;;21.10;;
72924;SDS011;61070;50.794;7.054;2023-02-21T11:32:18;49.28;;;20.58;;
72924;SDS011;61070;50.794;7.054;2023-02-21T11:34:48;47.63;;;20.40;;
72924;SDS011;61070;50.794;7.054;2023-02-21T11:37:14;47.30;;;22.27;;
72924;SDS011;61070;50.794;7.054;2023-02-21T11:39:40;51.28;;;22.25;;
72924;SDS011;61070;50.794;7.054;2023-02-21T11:42:27;44.97;;;22.40;;
72924;SDS011;61070;50.794;7.054;2023-02-21T11:45:08;49.22;;;21.95;;
72924;SDS011;61070;50.794;7.054;2023-02-21T11:48:00;45.13;;;21.35;;
72924;SDS011;61070;50.794;7.054;2023-02-21T11:50:30;50.33;;;22.58;;
72924;SDS011;61070;50.794;7.054;2023-02-21T11:55:30;45.35;;;21.85;;
72924;SDS011;61070;50.794;7.054;2023-02-21T11:58:16;45.53;;;19.38;;
72924;SDS011;61070;50.794;7.054;2023-02-21T12:00:50;45.08;;;19.42;;
72924;SDS011;61070;50.794;7.054;2023-02-21T12:06:21;45.70;;;21.77;;
72924;SDS011;61070;50.794;7.054;2023-02-21T12:12:00;44.58;;;20.60;;
72924;SDS011;61070;50.794;7.054;2023-02-21T12:20:30;48.70;;;21.70;;
72924;SDS011;61070;50.794;7.054;2023-02-21T12:23:25;50.47;;;22.15;;
72924;SDS011;61070;50.794;7.054;2023-02-21T12:28:39;52.78;;;22.90;;
72924;SDS011;61070;50.794;7.054;2023-02-21T12:34:12;58.22;;;25.83;;
72924;SDS011;61070;50.794;7.054;2023-02-21T12:39:31;52.10;;;23.42;;
72924;SDS011;61070;50.794;7.054;2023-02-21T12:42:15;53.22;;;24.13;;
72924;SDS011;61070;50.794;7.054;2023-02-21T12:47:26;49.70;;;23.15;;
72924;SDS011;61070;50.794;7.054;2023-02-21T12:49:58;50.33;;;22.35;;
72924;SDS011;61070;50.794;7.054;2023-02-21T12:52:35;61.05;;;23.92;;
72924;SDS011;61070;50.794;7.054;2023-02-21T12:55:13;51.50;;;23.20;;
72924;SDS011;61070;50.794;7.054;2023-02-21T13:00:26;46.05;;;22.38;;
72924;SDS011;61070;50.794;7.054;2023-02-21T13:03:02;43.67;;;22.20;;
72924;SDS011;61070;50.794;7.054;2023-02-21T13:08:55;50.80;;;22.83;;
72924;SDS011;61070;50.794;7.054;2023-02-21T13:11:34;49.63;;;22.58;;
72924;SDS011;61070;50.794;7.054;2023-02-21T13:14:22;47.85;;;23.15;;
72924;SDS011;61070;50.794;7.054;2023-02-21T13:16:52;48.78;;;23.20;;
72924;SDS011;61070;50.794;7.054;2023-02-21T13:19:18;56.85;;;23.98;;
72924;SDS011;61070;50.794;7.054;2023-02-21T13:24:22;41.65;;;20.58;;
72924;SDS011;61070;50.794;7.054;2023-02-21T13:29:57;52.08;;;22.70;;
72924;SDS011;61070;50.794;7.054;2023-02-21T13:32:27;52.63;;;23.13;;
72924;SDS011;61070;50.794;7.054;2023-02-21T13:34:54;43.97;;;23.23;;
72924;SDS011;61070;50.794;7.054;2023-02-21T13:37:27;48.28;;;22.40;;
72924;SDS011;61070;50.794;7.054;2023-02-21T13:39:56;49.53;;;21.70;;
72924;SDS011;61070;50.794;7.054;2023-02-21T13:42:31;50.33;;;22.98;;
72924;SDS011;61070;50.794;7.054;2023-02-21T13:45:17;47.85;;;21.85;;
72924;SDS011;61070;50.794;7.054;2023-02-21T13:50:39;47.55;;;23.70;;
72924;SDS011;61070;50.794;7.054;2023-02-21T13:53:11;47.35;;;22.90;;
72924;SDS011;61070;50.794;7.054;2023-02-21T14:01:12;43.17;;;22.05;;
72924;SDS011;61070;50.794;7.054;2023-02-21T14:03:38;43.95;;;20.35;;
72924;SDS011;61070;50.794;7.054;2023-02-21T14:08:35;44.40;;;21.10;;
72924;SDS011;61070;50.794;7.054;2023-02-21T14:13:40;44.50;;;22.27;;
72924;SDS011;61070;50.794;7.054;2023-02-21T14:16:35;48.33;;;23.35;;
72924;SDS011;61070;50.794;7.054;2023-02-21T14:19:17;45.95;;;23.15;;
72924;SDS011;61070;50.794;7.054;2023-02-21T14:21:47;46.85;;;20.58;;
72924;SDS011;61070;50.794;7.054;2023-02-21T14:24:18;47.78;;;22.63;;
72924;SDS011;61070;50.794;7.054;2023-02-21T14:31:57;49.63;;;23.90;;
72924;SDS011;61070;50.794;7.054;2023-02-21T14:34:47;55.00;;;21.88;;
72924;SDS011;61070;50.794;7.054;2023-02-21T14:43:14;44.33;;;21.48;;
72924;SDS011;61070;50.794;7.054;2023-02-21T14:57:14;54.97;;;22.65;;
72924;SDS011;61070;50.794;7.054;2023-02-21T15:02:45;52.50;;;25.10;;
72924;SDS011;61070;50.794;7.054;2023-02-21T15:05:22;59.17;;;26.08;;
72924;SDS011;61070;50.794;7.054;2023-02-21T15:07:56;59.38;;;26.10;;
72924;SDS011;61070;50.794;7.054;2023-02-21T15:10:23;57.40;;;27.05;;
72924;SDS011;61070;50.794;7.054;2023-02-21T15:12:52;54.67;;;25.92;;
72924;SDS011;61070;50.794;7.054;2023-02-21T15:15:21;65.63;;;28.98;;
72924;SDS011;61070;50.794;7.054;2023-02-21T15:17:57;62.78;;;29.10;;
72924;SDS011;61070;50.794;7.054;2023-02-21T15:20:26;52.63;;;26.35;;
72924;SDS011;61070;50.794;7.054;2023-02-21T15:22:55;69.35;;;30.50;;
72924;SDS011;61070;50.794;7.054;2023-02-21T15:25:34;69.60;;;32.92;;
72924;SDS011;61070;50.794;7.054;2023-02-21T15:28:01;65.80;;;32.45;;
72924;SDS011;61070;50.794;7.054;2023-02-21T15:30:30;61.55;;;30.00;;
72924;SDS011;61070;50.794;7.054;2023-02-21T15:33:01;67.10;;;31.00;;
72924;SDS011;61070;50.794;7.054;2023-02-21T15:35:35;70.03;;;32.20;;
72924;SDS011;61070;50.794;7.054;2023-02-21T15:38:10;70.53;;;32.70;;
72924;SDS011;61070;50.794;7.054;2023-02-21T15:40:41;66.93;;;30.98;;
72924;SDS011;61070;50.794;7.054;2023-02-21T15:43:07;70.05;;;31.80;;
72924;SDS011;61070;50.794;7.054;2023-02-21T15:45:45;67.03;;;31.02;;
72924;SDS011;61070;50.794;7.054;2023-02-21T15:48:12;81.63;;;34.60;;
72924;SDS011;61070;50.794;7.054;2023-02-21T15:50:39;80.18;;;33.53;;
72924;SDS011;61070;50.794;7.054;2023-02-21T15:53:11;77.30;;;32.25;;
72924;SDS011;61070;50.794;7.054;2023-02-21T15:55:45;72.07;;;30.63;;
72924;SDS011;61070;50.794;7.054;2023-02-21T16:06:13;77.88;;;33.22;;
72924;SDS011;61070;50.794;7.054;2023-02-21T16:11:53;91.30;;;36.05;;
72924;SDS011;61070;50.794;7.054;2023-02-21T16:25:04;112.70;;;45.63;;
72924;SDS011;61070;50.794;7.054;2023-02-21T16:27:36;112.20;;;45.05;;
72924;SDS011;61070;50.794;7.054;2023-02-21T16:30:09;111.78;;;45.53;;
72924;SDS011;61070;50.794;7.054;2023-02-21T16:32:37;120.97;;;49.22;;
72924;SDS011;61070;50.794;7.054;2023-02-21T16:35:04;124.60;;;46.30;;
72924;SDS011;61070;50.794;7.054;2023-02-21T16:37:29;126.80;;;48.95;;
72924;SDS011;61070;50.794;7.054;2023-02-21T16:39:56;132.70;;;46.45;;
72924;SDS011;61070;50.794;7.054;2023-02-21T16:42:21;115.63;;;46.92;;
72924;SDS011;61070;50.794;7.054;2023-02-21T16:44:47;125.97;;;46.33;;
72924;SDS011;61070;50.794;7.054;2023-02-21T16:47:13;134.85;;;48.58;;
72924;SDS011;61070;50.794;7.054;2023-02-21T16:49:39;130.40;;;49.00;;
72924;SDS011;61070;50.794;7.054;2023-02-21T16:52:08;126.03;;;49.30;;
72924;SDS011;61070;50.794;7.054;2023-02-21T16:54:37;127.53;;;47.72;;
72924;SDS011;61070;50.794;7.054;2023-02-21T16:57:02;125.68;;;47.00;;
72924;SDS011;61070;50.794;7.054;2023-02-21T16:59:28;129.35;;;48.47;;
72924;SDS011;61070;50.794;7.054;2023-02-21T17:01:53;133.10;;;48.58;;
72924;SDS011;61070;50.794;7.054;2023-02-21T17:04:20;134.65;;;49.85;;
72924;SDS011;61070;50.794;7.054;2023-02-21T17:06:52;135.98;;;49.45;;
72924;SDS011;61070;50.794;7.054;2023-02-21T17:09:21;133.80;;;46.92;;
72924;SDS011;61070;50.794;7.054;2023-02-21T17:11:49;136.20;;;46.60;;
72924;SDS011;61070;50.794;7.054;2023-02-21T17:14:14;124.20;;;44.97;;